sensor_id;sensor_type;location;lat;lon;timestamp;temperature;humidity
44170;DHT22;29836;52.286;9.576;2023-08-17T00:02:13;17.50;99.90
44170;DHT22;29836;52.286;9.576;2023-08-17T00:04:39;17.50;99.90
44170;DHT22;29836;52.286;9.576;2023-08-17T00:07:05;17.50;99.90
44170;DHT22;29836;52.286;9.576;2023-08-17T00:09:30;17.50;99.90
44170;DHT22;29836;52.286;9.576;2023-08-17T00:11:56;17.40;99.90
44170;DHT22;29836;52.286;9.576;2023-08-17T00:14:21;17.40;99.90
44170;DHT22;29836;52.286;9.576;2023-08-17T00:16:49;17.30;99.90
44170;DHT22;29836;52.286;9.576;2023-08-17T00:19:15;17.20;99.90
44170;DHT22;29836;52.286;9.576;2023-08-17T00:21:40;17.10;99.90
44170;DHT22;29836;52.286;9.576;2023-08-17T00:24:06;17.00;99.90
44170;DHT22;29836;52.286;9.576;2023-08-17T00:26:32;17.00;99.90
44170;DHT22;29836;52.286;9.576;2023-08-17T00:28:57;16.90;99.90
44170;DHT22;29836;52.286;9.576;2023-08-17T00:31:23;16.80;99.90
44170;DHT22;29836;52.286;9.576;2023-08-17T00:33:48;16.80;99.90
44170;DHT22;29836;52.286;9.576;2023-08-17T00:36:14;16.70;99.90
44170;DHT22;29836;52.286;9.576;2023-08-17T00:38:40;16.70;99.90
44170;DHT22;29836;52.286;9.576;2023-08-17T00:41:05;16.60;99.90
44170;DHT22;29836;52.286;9.576;2023-08-17T00:43:31;16.60;99.90
44170;DHT22;29836;52.286;9.576;2023-08-17T00:45:56;16.50;99.90
44170;DHT22;29836;52.286;9.576;2023-08-17T00:48:22;16.50;99.90
44170;DHT22;29836;52.286;9.576;2023-08-17T00:50:50;16.40;99.90
44170;DHT22;29836;52.286;9.576;2023-08-17T00:53:18;16.40;99.90
44170;DHT22;29836;52.286;9.576;2023-08-17T00:55:44;16.30;99.90
44170;DHT22;29836;52.286;9.576;2023-08-17T00:58:10;16.30;99.90
44170;DHT22;29836;52.286;9.576;2023-08-17T01:00:35;16.30;99.90
44170;DHT22;29836;52.286;9.576;2023-08-17T01:03:01;16.20;99.90
44170;DHT22;29836;52.286;9.576;2023-08-17T01:05:27;16.20;99.90
44170;DHT22;29836;52.286;9.576;2023-08-17T01:07:52;16.20;99.90
44170;DHT22;29836;52.286;9.576;2023-08-17T01:10:18;16.10;99.90
44170;DHT22;29836;52.286;9.576;2023-08-17T01:13:05;16.10;99.90
44170;DHT22;29836;52.286;9.576;2023-08-17T01:15:37;16.10;99.90
44170;DHT22;29836;52.286;9.576;2023-08-17T01:18:21;16.10;99.90
44170;DHT22;29836;52.286;9.576;2023-08-17T01:20:49;16.10;99.90
44170;DHT22;29836;52.286;9.576;2023-08-17T01:23:14;16.10;99.90
44170;DHT22;29836;52.286;9.576;2023-08-17T01:25:40;16.10;99.90
44170;DHT22;29836;52.286;9.576;2023-08-17T01:28:06;16.10;99.90
44170;DHT22;29836;52.286;9.576;2023-08-17T01:33:08;16.20;99.90
44170;DHT22;29836;52.286;9.576;2023-08-17T01:36:03;16.10;99.90
44170;DHT22;29836;52.286;9.576;2023-08-17T01:38:29;16.10;99.90
44170;DHT22;29836;52.286;9.576;2023-08-17T01:40:56;16.10;99.90
44170;DHT22;29836;52.286;9.576;2023-08-17T01:43:22;16.10;99.90
44170;DHT22;29836;52.286;9.576;2023-08-17T01:45:48;16.10;99.90
44170;DHT22;29836;52.286;9.576;2023-08-17T01:48:14;16.20;99.90
44170;DHT22;29836;52.286;9.576;2023-08-17T01:50:39;16.10;99.90
44170;DHT22;29836;52.286;9.576;2023-08-17T01:53:05;16.10;99.90
44170;DHT22;29836;52.286;9.576;2023-08-17T01:55:30;16.10;99.90
44170;DHT22;29836;52.286;9.576;2023-08-17T01:57:56;16.20;99.90
44170;DHT22;29836;52.286;9.576;2023-08-17T02:00:22;16.10;99.90
44170;DHT22;29836;52.286;9.576;2023-08-17T02:02:47;16.10;99.90
44170;DHT22;29836;52.286;9.576;2023-08-17T02:05:13;16.10;99.90
44170;DHT22;29836;52.286;9.576;2023-08-17T02:07:38;16.10;99.90
44170;DHT22;29836;52.286;9.576;2023-08-17T02:10:04;16.10;99.90
44170;DHT22;29836;52.286;9.576;2023-08-17T02:12:30;16.00;99.90
44170;DHT22;29836;52.286;9.576;2023-08-17T02:14:56;16.00;99.90
44170;DHT22;29836;52.286;9.576;2023-08-17T02:17:21;16.00;99.90
44170;DHT22;29836;52.286;9.576;2023-08-17T02:19:48;16.00;99.90
44170;DHT22;29836;52.286;9.576;2023-08-17T02:22:14;16.00;99.90
44170;DHT22;29836;52.286;9.576;2023-08-17T02:24:40;16.00;99.90
44170;DHT22;29836;52.286;9.576;2023-08-17T02:27:06;16.00;99.90
44170;DHT22;29836;52.286;9.576;2023-08-17T02:29:32;16.00;99.90
44170;DHT22;29836;52.286;9.576;2023-08-17T02:31:57;15.90;99.90
44170;DHT22;29836;52.286;9.576;2023-08-17T02:34:23;15.90;99.90
44170;DHT22;29836;52.286;9.576;2023-08-17T02:36:48;15.90;99.90
44170;DHT22;29836;52.286;9.576;2023-08-17T02:39:14;15.90;99.90
44170;DHT22;29836;52.286;9.576;2023-08-17T02:41:40;15.90;99.90
44170;DHT22;29836;52.286;9.576;2023-08-17T02:44:06;15.90;99.90
44170;DHT22;29836;52.286;9.576;2023-08-17T02:46:31;15.90;99.90
44170;DHT22;29836;52.286;9.576;2023-08-17T02:48:57;15.80;99.90
44170;DHT22;29836;52.286;9.576;2023-08-17T02:51:22;15.80;99.90
44170;DHT22;29836;52.286;9.576;2023-08-17T02:53:48;15.80;99.90
44170;DHT22;29836;52.286;9.576;2023-08-17T02:56:14;15.80;99.90
44170;DHT22;29836;52.286;9.576;2023-08-17T02:58:39;15.90;99.90
44170;DHT22;29836;52.286;9.576;2023-08-17T03:01:08;15.90;99.90
44170;DHT22;29836;52.286;9.576;2023-08-17T03:03:34;15.90;99.90
44170;DHT22;29836;52.286;9.576;2023-08-17T03:06:01;15.90;99.90
44170;DHT22;29836;52.286;9.576;2023-08-17T03:08:26;16.00;99.90
44170;DHT22;29836;52.286;9.576;2023-08-17T03:10:52;16.00;99.90
44170;DHT22;29836;52.286;9.576;2023-08-17T03:13:17;16.00;99.90
44170;DHT22;29836;52.286;9.576;2023-08-17T03:15:43;16.00;99.90
44170;DHT22;29836;52.286;9.576;2023-08-17T03:18:08;16.00;99.90
44170;DHT22;29836;52.286;9.576;2023-08-17T03:20:34;16.00;99.90
44170;DHT22;29836;52.286;9.576;2023-08-17T03:22:59;16.00;99.90
44170;DHT22;29836;52.286;9.576;2023-08-17T03:25:25;16.00;99.90
44170;DHT22;29836;52.286;9.576;2023-08-17T03:27:51;16.00;99.90
44170;DHT22;29836;52.286;9.576;2023-08-17T03:30:16;16.10;99.90
44170;DHT22;29836;52.286;9.576;2023-08-17T03:32:42;16.10;99.90
44170;DHT22;29836;52.286;9.576;2023-08-17T03:35:08;16.20;99.90
44170;DHT22;29836;52.286;9.576;2023-08-17T03:37:33;16.20;99.90
44170;DHT22;29836;52.286;9.576;2023-08-17T03:39:59;16.20;99.90
44170;DHT22;29836;52.286;9.576;2023-08-17T03:42:26;16.20;99.90
44170;DHT22;29836;52.286;9.576;2023-08-17T03:44:52;16.20;99.90
44170;DHT22;29836;52.286;9.576;2023-08-17T03:47:18;16.30;99.90
44170;DHT22;29836;52.286;9.576;2023-08-17T03:49:44;16.30;99.90
44170;DHT22;29836;52.286;9.576;2023-08-17T03:52:09;16.40;99.90
44170;DHT22;29836;52.286;9.576;2023-08-17T03:54:36;16.40;99.90
44170;DHT22;29836;52.286;9.576;2023-08-17T03:57:01;16.40;99.90
44170;DHT22;29836;52.286;9.576;2023-08-17T03:59:27;16.50;99.90
44170;DHT22;29836;52.286;9.576;2023-08-17T04:01:53;16.50;99.90
44170;DHT22;29836;52.286;9.576;2023-08-17T04:04:18;16.60;99.90
44170;DHT22;29836;52.286;9.576;2023-08-17T04:06:44;16.60;99.90
44170;DHT22;29836;52.286;9.576;2023-08-17T04:09:10;16.60;99.90
44170;DHT22;29836;52.286;9.576;2023-08-17T04:11:35;16.60;99.90
44170;DHT22;29836;52.286;9.576;2023-08-17T04:14:04;16.60;99.90
44170;DHT22;29836;52.286;9.576;2023-08-17T04:16:30;16.70;99.90
44170;DHT22;29836;52.286;9.576;2023-08-17T04:18:56;16.70;99.90
44170;DHT22;29836;52.286;9.576;2023-08-17T04:21:21;16.70;99.90
44170;DHT22;29836;52.286;9.576;2023-08-17T04:23:47;16.80;99.90
44170;DHT22;29836;52.286;9.576;2023-08-17T04:26:12;16.80;99.90
44170;DHT22;29836;52.286;9.576;2023-08-17T04:28:38;16.80;99.90
44170;DHT22;29836;52.286;9.576;2023-08-17T04:31:04;16.80;99.90
44170;DHT22;29836;52.286;9.576;2023-08-17T04:33:29;16.80;99.90
44170;DHT22;29836;52.286;9.576;2023-08-17T04:35:55;16.90;99.90
44170;DHT22;29836;52.286;9.576;2023-08-17T04:38:20;16.80;99.90
44170;DHT22;29836;52.286;9.576;2023-08-17T04:40:46;16.90;99.90
44170;DHT22;29836;52.286;9.576;2023-08-17T04:43:12;16.90;99.90
44170;DHT22;29836;52.286;9.576;2023-08-17T04:45:38;16.90;99.90
44170;DHT22;29836;52.286;9.576;2023-08-17T04:48:04;17.00;99.90
44170;DHT22;29836;52.286;9.576;2023-08-17T04:50:31;16.90;99.90
44170;DHT22;29836;52.286;9.576;2023-08-17T04:52:56;16.90;99.90
44170;DHT22;29836;52.286;9.576;2023-08-17T04:55:22;17.00;99.90
44170;DHT22;29836;52.286;9.576;2023-08-17T04:57:47;16.90;99.90
44170;DHT22;29836;52.286;9.576;2023-08-17T05:00:14;17.00;99.90
44170;DHT22;29836;52.286;9.576;2023-08-17T05:02:40;17.00;99.90
44170;DHT22;29836;52.286;9.576;2023-08-17T05:05:06;17.00;99.90
44170;DHT22;29836;52.286;9.576;2023-08-17T05:07:33;17.00;99.90
44170;DHT22;29836;52.286;9.576;2023-08-17T05:09:59;17.00;99.90
44170;DHT22;29836;52.286;9.576;2023-08-17T05:12:25;17.00;99.90
44170;DHT22;29836;52.286;9.576;2023-08-17T05:14:50;17.00;99.90
44170;DHT22;29836;52.286;9.576;2023-08-17T05:17:16;17.00;99.90
44170;DHT22;29836;52.286;9.576;2023-08-17T05:19:42;17.00;99.90
44170;DHT22;29836;52.286;9.576;2023-08-17T05:22:11;17.00;99.90
44170;DHT22;29836;52.286;9.576;2023-08-17T05:24:37;17.10;99.90
44170;DHT22;29836;52.286;9.576;2023-08-17T05:27:02;17.10;99.90
44170;DHT22;29836;52.286;9.576;2023-08-17T05:29:28;17.10;99.90
44170;DHT22;29836;52.286;9.576;2023-08-17T05:31:54;17.10;99.90
44170;DHT22;29836;52.286;9.576;2023-08-17T05:34:19;17.10;99.90
44170;DHT22;29836;52.286;9.576;2023-08-17T05:36:45;17.10;99.90
44170;DHT22;29836;52.286;9.576;2023-08-17T05:39:10;17.10;99.90
44170;DHT22;29836;52.286;9.576;2023-08-17T05:41:36;17.10;99.90
44170;DHT22;29836;52.286;9.576;2023-08-17T05:44:02;17.10;99.90
44170;DHT22;29836;52.286;9.576;2023-08-17T05:46:27;17.10;99.90
44170;DHT22;29836;52.286;9.576;2023-08-17T05:48:53;17.10;99.90
44170;DHT22;29836;52.286;9.576;2023-08-17T05:51:18;17.10;99.90
44170;DHT22;29836;52.286;9.576;2023-08-17T05:53:44;17.10;99.90
44170;DHT22;29836;52.286;9.576;2023-08-17T05:56:10;17.10;99.90
44170;DHT22;29836;52.286;9.576;2023-08-17T05:58:35;17.10;99.90
44170;DHT22;29836;52.286;9.576;2023-08-17T06:01:09;17.10;99.90
44170;DHT22;29836;52.286;9.576;2023-08-17T06:03:35;17.10;99.90
44170;DHT22;29836;52.286;9.576;2023-08-17T06:06:02;17.10;99.90
44170;DHT22;29836;52.286;9.576;2023-08-17T06:08:28;17.10;99.90
44170;DHT22;29836;52.286;9.576;2023-08-17T06:10:54;17.10;99.90
44170;DHT22;29836;52.286;9.576;2023-08-17T06:13:20;17.10;99.90
44170;DHT22;29836;52.286;9.576;2023-08-17T06:15:46;17.10;99.90
44170;DHT22;29836;52.286;9.576;2023-08-17T06:18:11;17.20;99.90
44170;DHT22;29836;52.286;9.576;2023-08-17T06:20:37;17.20;99.90
44170;DHT22;29836;52.286;9.576;2023-08-17T06:23:02;17.20;99.90
44170;DHT22;29836;52.286;9.576;2023-08-17T06:25:28;17.20;99.90
44170;DHT22;29836;52.286;9.576;2023-08-17T06:27:54;17.20;99.90
44170;DHT22;29836;52.286;9.576;2023-08-17T06:30:19;17.20;99.90
44170;DHT22;29836;52.286;9.576;2023-08-17T06:32:45;17.20;99.90
44170;DHT22;29836;52.286;9.576;2023-08-17T06:35:10;17.20;99.90
44170;DHT22;29836;52.286;9.576;2023-08-17T06:37:36;17.10;99.90
44170;DHT22;29836;52.286;9.576;2023-08-17T06:40:05;17.10;99.90
44170;DHT22;29836;52.286;9.576;2023-08-17T06:42:31;17.20;99.90
44170;DHT22;29836;52.286;9.576;2023-08-17T06:44:57;17.20;99.90
44170;DHT22;29836;52.286;9.576;2023-08-17T06:47:22;17.20;99.90
44170;DHT22;29836;52.286;9.576;2023-08-17T06:49:48;17.20;99.90
44170;DHT22;29836;52.286;9.576;2023-08-17T06:52:14;17.20;99.90
44170;DHT22;29836;52.286;9.576;2023-08-17T06:54:39;17.20;99.90
44170;DHT22;29836;52.286;9.576;2023-08-17T06:57:05;17.20;99.90
44170;DHT22;29836;52.286;9.576;2023-08-17T06:59:31;17.20;99.90
44170;DHT22;29836;52.286;9.576;2023-08-17T07:01:58;17.30;99.90
44170;DHT22;29836;52.286;9.576;2023-08-17T07:04:24;17.30;99.90
44170;DHT22;29836;52.286;9.576;2023-08-17T07:06:49;17.30;99.90
44170;DHT22;29836;52.286;9.576;2023-08-17T07:09:15;17.30;99.90
44170;DHT22;29836;52.286;9.576;2023-08-17T07:11:43;17.30;99.90
44170;DHT22;29836;52.286;9.576;2023-08-17T07:14:08;17.30;99.90
44170;DHT22;29836;52.286;9.576;2023-08-17T07:16:34;17.30;99.90
44170;DHT22;29836;52.286;9.576;2023-08-17T07:19:00;17.30;99.90
44170;DHT22;29836;52.286;9.576;2023-08-17T07:21:26;17.30;99.90
44170;DHT22;29836;52.286;9.576;2023-08-17T07:23:54;17.30;99.90
44170;DHT22;29836;52.286;9.576;2023-08-17T07:26:20;17.30;99.90
44170;DHT22;29836;52.286;9.576;2023-08-17T07:28:46;17.30;99.90
44170;DHT22;29836;52.286;9.576;2023-08-17T07:31:12;17.30;99.90
44170;DHT22;29836;52.286;9.576;2023-08-17T07:33:39;17.40;99.90
44170;DHT22;29836;52.286;9.576;2023-08-17T07:36:04;17.40;99.90
44170;DHT22;29836;52.286;9.576;2023-08-17T07:38:30;17.40;99.90
44170;DHT22;29836;52.286;9.576;2023-08-17T07:40:56;17.40;99.90
44170;DHT22;29836;52.286;9.576;2023-08-17T07:43:21;17.40;99.90
44170;DHT22;29836;52.286;9.576;2023-08-17T07:45:56;17.50;99.90
44170;DHT22;29836;52.286;9.576;2023-08-17T07:48:22;17.50;99.90
44170;DHT22;29836;52.286;9.576;2023-08-17T07:50:51;17.60;99.90
44170;DHT22;29836;52.286;9.576;2023-08-17T07:53:21;17.60;99.90
44170;DHT22;29836;52.286;9.576;2023-08-17T07:55:46;17.70;99.90
44170;DHT22;29836;52.286;9.576;2023-08-17T07:58:12;17.80;99.90
44170;DHT22;29836;52.286;9.576;2023-08-17T08:00:37;17.90;99.90
44170;DHT22;29836;52.286;9.576;2023-08-17T08:03:03;18.00;99.90
44170;DHT22;29836;52.286;9.576;2023-08-17T08:05:29;18.10;99.90
44170;DHT22;29836;52.286;9.576;2023-08-17T08:07:54;18.30;99.90
44170;DHT22;29836;52.286;9.576;2023-08-17T08:10:20;18.30;99.90
44170;DHT22;29836;52.286;9.576;2023-08-17T08:12:46;18.40;99.90
44170;DHT22;29836;52.286;9.576;2023-08-17T08:15:11;18.40;99.90
44170;DHT22;29836;52.286;9.576;2023-08-17T08:17:37;18.40;99.90
44170;DHT22;29836;52.286;9.576;2023-08-17T08:20:03;18.30;99.90
44170;DHT22;29836;52.286;9.576;2023-08-17T08:22:29;18.30;99.90
44170;DHT22;29836;52.286;9.576;2023-08-17T08:24:55;18.20;99.90
44170;DHT22;29836;52.286;9.576;2023-08-17T08:27:20;18.30;99.90
44170;DHT22;29836;52.286;9.576;2023-08-17T08:29:46;18.30;99.90
44170;DHT22;29836;52.286;9.576;2023-08-17T08:32:12;18.20;99.90
44170;DHT22;29836;52.286;9.576;2023-08-17T08:34:37;18.20;99.90
44170;DHT22;29836;52.286;9.576;2023-08-17T08:37:03;18.20;99.90
44170;DHT22;29836;52.286;9.576;2023-08-17T08:39:29;18.20;99.90
44170;DHT22;29836;52.286;9.576;2023-08-17T08:41:54;18.20;99.90
44170;DHT22;29836;52.286;9.576;2023-08-17T08:44:21;18.20;99.90
44170;DHT22;29836;52.286;9.576;2023-08-17T08:46:47;18.20;99.90
44170;DHT22;29836;52.286;9.576;2023-08-17T08:49:19;18.20;99.90
44170;DHT22;29836;52.286;9.576;2023-08-17T08:51:48;18.20;99.90
44170;DHT22;29836;52.286;9.576;2023-08-17T08:54:20;18.30;99.90
44170;DHT22;29836;52.286;9.576;2023-08-17T08:56:46;18.30;99.90
44170;DHT22;29836;52.286;9.576;2023-08-17T08:59:13;18.30;99.90
44170;DHT22;29836;52.286;9.576;2023-08-17T09:01:40;18.30;99.90
44170;DHT22;29836;52.286;9.576;2023-08-17T09:04:06;18.30;99.90
44170;DHT22;29836;52.286;9.576;2023-08-17T09:06:32;18.30;99.90
44170;DHT22;29836;52.286;9.576;2023-08-17T09:09:01;18.30;99.90
44170;DHT22;29836;52.286;9.576;2023-08-17T09:11:27;18.30;99.90
44170;DHT22;29836;52.286;9.576;2023-08-17T09:13:53;18.20;99.90
44170;DHT22;29836;52.286;9.576;2023-08-17T09:16:18;18.10;99.90
44170;DHT22;29836;52.286;9.576;2023-08-17T09:18:44;18.10;99.90
44170;DHT22;29836;52.286;9.576;2023-08-17T09:21:23;18.00;99.90
44170;DHT22;29836;52.286;9.576;2023-08-17T09:23:53;17.90;99.90
44170;DHT22;29836;52.286;9.576;2023-08-17T09:26:20;17.90;99.90
44170;DHT22;29836;52.286;9.576;2023-08-17T09:28:49;17.90;99.90
44170;DHT22;29836;52.286;9.576;2023-08-17T09:31:14;17.80;99.90
44170;DHT22;29836;52.286;9.576;2023-08-17T09:33:40;17.80;99.90
44170;DHT22;29836;52.286;9.576;2023-08-17T09:36:06;17.80;99.90
44170;DHT22;29836;52.286;9.576;2023-08-17T09:38:31;17.80;99.90
44170;DHT22;29836;52.286;9.576;2023-08-17T09:40:57;17.80;99.90
44170;DHT22;29836;52.286;9.576;2023-08-17T09:43:24;17.80;99.90
44170;DHT22;29836;52.286;9.576;2023-08-17T09:45:54;17.80;99.90
44170;DHT22;29836;52.286;9.576;2023-08-17T09:48:20;17.90;99.90
44170;DHT22;29836;52.286;9.576;2023-08-17T09:50:47;17.80;99.90
44170;DHT22;29836;52.286;9.576;2023-08-17T09:53:13;17.80;99.90
44170;DHT22;29836;52.286;9.576;2023-08-17T09:55:41;17.90;99.90
44170;DHT22;29836;52.286;9.576;2023-08-17T09:58:06;17.90;99.90
44170;DHT22;29836;52.286;9.576;2023-08-17T10:00:33;18.00;99.90
44170;DHT22;29836;52.286;9.576;2023-08-17T10:03:02;18.10;99.90
44170;DHT22;29836;52.286;9.576;2023-08-17T10:05:30;18.10;99.90
44170;DHT22;29836;52.286;9.576;2023-08-17T10:07:59;18.20;99.90
44170;DHT22;29836;52.286;9.576;2023-08-17T10:10:27;18.20;99.90
44170;DHT22;29836;52.286;9.576;2023-08-17T10:15:34;18.30;99.90
44170;DHT22;29836;52.286;9.576;2023-08-17T10:18:13;18.30;99.90
44170;DHT22;29836;52.286;9.576;2023-08-17T10:20:44;18.20;99.90
44170;DHT22;29836;52.286;9.576;2023-08-17T10:23:15;18.20;99.90
44170;DHT22;29836;52.286;9.576;2023-08-17T10:25:42;18.20;99.90
44170;DHT22;29836;52.286;9.576;2023-08-17T10:28:10;18.20;99.90
44170;DHT22;29836;52.286;9.576;2023-08-17T10:30:37;18.00;99.90
44170;DHT22;29836;52.286;9.576;2023-08-17T10:33:07;17.90;99.90
44170;DHT22;29836;52.286;9.576;2023-08-17T10:35:34;17.80;99.90
44170;DHT22;29836;52.286;9.576;2023-08-17T10:38:02;17.80;99.90
44170;DHT22;29836;52.286;9.576;2023-08-17T10:40:35;17.80;99.90
44170;DHT22;29836;52.286;9.576;2023-08-17T10:43:01;17.70;99.90
44170;DHT22;29836;52.286;9.576;2023-08-17T10:45:28;17.60;99.90
44170;DHT22;29836;52.286;9.576;2023-08-17T10:48:24;17.50;99.90
44170;DHT22;29836;52.286;9.576;2023-08-17T10:51:02;17.40;99.90
44170;DHT22;29836;52.286;9.576;2023-08-17T10:53:34;17.30;99.90
44170;DHT22;29836;52.286;9.576;2023-08-17T10:55:59;17.30;99.90
44170;DHT22;29836;52.286;9.576;2023-08-17T10:58:25;17.10;99.90
44170;DHT22;29836;52.286;9.576;2023-08-17T11:00:54;17.10;99.90
44170;DHT22;29836;52.286;9.576;2023-08-17T11:03:22;17.10;99.90
44170;DHT22;29836;52.286;9.576;2023-08-17T11:05:49;17.10;99.90
44170;DHT22;29836;52.286;9.576;2023-08-17T11:08:55;17.10;99.90
44170;DHT22;29836;52.286;9.576;2023-08-17T11:11:23;17.10;99.90
44170;DHT22;29836;52.286;9.576;2023-08-17T11:13:49;17.10;99.90
44170;DHT22;29836;52.286;9.576;2023-08-17T11:16:17;17.10;99.90
44170;DHT22;29836;52.286;9.576;2023-08-17T11:18:45;17.10;99.90
44170;DHT22;29836;52.286;9.576;2023-08-17T11:21:11;17.10;99.90
44170;DHT22;29836;52.286;9.576;2023-08-17T11:23:37;17.10;99.90
44170;DHT22;29836;52.286;9.576;2023-08-17T11:26:04;17.00;99.90
44170;DHT22;29836;52.286;9.576;2023-08-17T11:28:30;16.90;99.90
44170;DHT22;29836;52.286;9.576;2023-08-17T11:31:06;16.90;99.90
44170;DHT22;29836;52.286;9.576;2023-08-17T11:33:32;16.90;99.90
44170;DHT22;29836;52.286;9.576;2023-08-17T11:35:59;16.90;99.90
44170;DHT22;29836;52.286;9.576;2023-08-17T11:38:29;16.90;99.90
44170;DHT22;29836;52.286;9.576;2023-08-17T11:40:55;17.00;99.90
44170;DHT22;29836;52.286;9.576;2023-08-17T11:43:22;17.00;99.90
44170;DHT22;29836;52.286;9.576;2023-08-17T11:45:48;17.10;99.90
44170;DHT22;29836;52.286;9.576;2023-08-17T11:48:14;17.00;99.90
44170;DHT22;29836;52.286;9.576;2023-08-17T11:50:42;17.00;99.90
44170;DHT22;29836;52.286;9.576;2023-08-17T11:53:08;16.90;99.90
44170;DHT22;29836;52.286;9.576;2023-08-17T11:55:33;16.80;99.90
44170;DHT22;29836;52.286;9.576;2023-08-17T11:57:59;16.80;99.90
44170;DHT22;29836;52.286;9.576;2023-08-17T12:00:24;16.80;99.90
44170;DHT22;29836;52.286;9.576;2023-08-17T12:02:52;16.90;99.90
44170;DHT22;29836;52.286;9.576;2023-08-17T12:05:22;16.90;99.90
44170;DHT22;29836;52.286;9.576;2023-08-17T12:07:53;16.90;99.90
44170;DHT22;29836;52.286;9.576;2023-08-17T12:10:19;16.80;99.90
44170;DHT22;29836;52.286;9.576;2023-08-17T12:12:46;17.00;99.90
44170;DHT22;29836;52.286;9.576;2023-08-17T12:15:13;16.90;99.90
44170;DHT22;29836;52.286;9.576;2023-08-17T12:17:49;16.90;99.90
44170;DHT22;29836;52.286;9.576;2023-08-17T12:20:21;16.80;99.90
44170;DHT22;29836;52.286;9.576;2023-08-17T12:22:47;16.80;99.90
44170;DHT22;29836;52.286;9.576;2023-08-17T12:25:13;16.70;99.90
44170;DHT22;29836;52.286;9.576;2023-08-17T12:27:40;16.70;99.90
44170;DHT22;29836;52.286;9.576;2023-08-17T12:30:14;16.70;99.90
44170;DHT22;29836;52.286;9.576;2023-08-17T12:32:39;16.70;99.90
44170;DHT22;29836;52.286;9.576;2023-08-17T12:35:05;16.70;99.90
44170;DHT22;29836;52.286;9.576;2023-08-17T12:37:31;16.70;99.90
44170;DHT22;29836;52.286;9.576;2023-08-17T12:39:56;16.60;99.90
44170;DHT22;29836;52.286;9.576;2023-08-17T12:42:22;16.60;99.90
44170;DHT22;29836;52.286;9.576;2023-08-17T12:44:47;16.60;99.90
44170;DHT22;29836;52.286;9.576;2023-08-17T12:47:14;16.50;99.90
44170;DHT22;29836;52.286;9.576;2023-08-17T12:49:39;16.60;99.90
44170;DHT22;29836;52.286;9.576;2023-08-17T12:52:05;16.60;99.90
44170;DHT22;29836;52.286;9.576;2023-08-17T12:54:30;16.60;99.90
44170;DHT22;29836;52.286;9.576;2023-08-17T12:56:56;16.60;99.90
44170;DHT22;29836;52.286;9.576;2023-08-17T12:59:21;16.70;99.90
44170;DHT22;29836;52.286;9.576;2023-08-17T13:01:47;16.70;99.90
44170;DHT22;29836;52.286;9.576;2023-08-17T13:04:13;16.80;99.90
44170;DHT22;29836;52.286;9.576;2023-08-17T13:06:38;16.80;99.90
44170;DHT22;29836;52.286;9.576;2023-08-17T13:09:05;16.80;99.90
44170;DHT22;29836;52.286;9.576;2023-08-17T13:11:31;16.80;99.90
44170;DHT22;29836;52.286;9.576;2023-08-17T13:13:56;16.90;99.90
44170;DHT22;29836;52.286;9.576;2023-08-17T13:16:22;16.90;99.90
44170;DHT22;29836;52.286;9.576;2023-08-17T13:18:48;16.80;99.90
44170;DHT22;29836;52.286;9.576;2023-08-17T13:21:14;16.70;99.90
44170;DHT22;29836;52.286;9.576;2023-08-17T13:23:41;16.70;99.90
44170;DHT22;29836;52.286;9.576;2023-08-17T13:26:06;16.80;99.90
44170;DHT22;29836;52.286;9.576;2023-08-17T13:28:32;16.80;99.90
44170;DHT22;29836;52.286;9.576;2023-08-17T13:30:58;16.80;99.90
44170;DHT22;29836;52.286;9.576;2023-08-17T13:33:23;16.90;99.90
44170;DHT22;29836;52.286;9.576;2023-08-17T13:35:49;16.90;99.90
44170;DHT22;29836;52.286;9.576;2023-08-17T13:38:14;16.90;99.90
44170;DHT22;29836;52.286;9.576;2023-08-17T13:40:40;16.90;99.90
44170;DHT22;29836;52.286;9.576;2023-08-17T13:43:05;16.90;99.90
44170;DHT22;29836;52.286;9.576;2023-08-17T13:45:38;16.90;99.90
44170;DHT22;29836;52.286;9.576;2023-08-17T13:48:04;16.90;99.90
44170;DHT22;29836;52.286;9.576;2023-08-17T13:50:30;16.80;99.90
44170;DHT22;29836;52.286;9.576;2023-08-17T13:52:55;16.90;99.90
44170;DHT22;29836;52.286;9.576;2023-08-17T13:55:21;16.90;99.90
44170;DHT22;29836;52.286;9.576;2023-08-17T13:57:46;16.90;99.90
44170;DHT22;29836;52.286;9.576;2023-08-17T14:00:13;16.90;99.90
44170;DHT22;29836;52.286;9.576;2023-08-17T14:02:38;16.90;99.90
44170;DHT22;29836;52.286;9.576;2023-08-17T14:05:04;16.90;99.90
44170;DHT22;29836;52.286;9.576;2023-08-17T14:07:30;16.80;99.90
44170;DHT22;29836;52.286;9.576;2023-08-17T14:09:55;16.80;99.90
44170;DHT22;29836;52.286;9.576;2023-08-17T14:12:21;16.80;99.90
44170;DHT22;29836;52.286;9.576;2023-08-17T14:14:46;16.90;99.90
44170;DHT22;29836;52.286;9.576;2023-08-17T14:17:12;16.90;99.90
44170;DHT22;29836;52.286;9.576;2023-08-17T14:19:37;17.00;99.90
44170;DHT22;29836;52.286;9.576;2023-08-17T14:22:03;17.10;99.90
44170;DHT22;29836;52.286;9.576;2023-08-17T14:24:28;17.10;99.90
44170;DHT22;29836;52.286;9.576;2023-08-17T14:26:54;17.00;99.90
44170;DHT22;29836;52.286;9.576;2023-08-17T14:29:22;17.10;99.90
44170;DHT22;29836;52.286;9.576;2023-08-17T14:31:47;17.10;99.90
44170;DHT22;29836;52.286;9.576;2023-08-17T14:34:13;17.00;99.90
44170;DHT22;29836;52.286;9.576;2023-08-17T14:36:40;17.00;99.90
44170;DHT22;29836;52.286;9.576;2023-08-17T14:39:06;17.00;99.90
44170;DHT22;29836;52.286;9.576;2023-08-17T14:41:31;17.00;99.90
44170;DHT22;29836;52.286;9.576;2023-08-17T14:44:00;17.00;99.90
44170;DHT22;29836;52.286;9.576;2023-08-17T14:46:26;16.90;99.90
44170;DHT22;29836;52.286;9.576;2023-08-17T14:48:52;16.90;99.90
44170;DHT22;29836;52.286;9.576;2023-08-17T14:51:17;16.90;99.90
44170;DHT22;29836;52.286;9.576;2023-08-17T14:53:43;16.90;99.90
44170;DHT22;29836;52.286;9.576;2023-08-17T14:56:09;16.90;99.90
44170;DHT22;29836;52.286;9.576;2023-08-17T14:58:34;16.90;99.90
44170;DHT22;29836;52.286;9.576;2023-08-17T15:01:00;16.90;99.90
44170;DHT22;29836;52.286;9.576;2023-08-17T15:03:26;17.00;99.90
44170;DHT22;29836;52.286;9.576;2023-08-17T15:05:51;17.00;99.90
44170;DHT22;29836;52.286;9.576;2023-08-17T15:08:17;17.00;99.90
44170;DHT22;29836;52.286;9.576;2023-08-17T15:10:43;17.10;99.90
44170;DHT22;29836;52.286;9.576;2023-08-17T15:13:08;17.10;99.90
44170;DHT22;29836;52.286;9.576;2023-08-17T15:15:34;17.20;99.90
44170;DHT22;29836;52.286;9.576;2023-08-17T15:18:02;17.30;99.90
44170;DHT22;29836;52.286;9.576;2023-08-17T15:20:28;17.30;99.90
44170;DHT22;29836;52.286;9.576;2023-08-17T15:22:55;17.30;99.90
44170;DHT22;29836;52.286;9.576;2023-08-17T15:25:21;17.30;99.90
44170;DHT22;29836;52.286;9.576;2023-08-17T15:27:46;17.30;99.90
44170;DHT22;29836;52.286;9.576;2023-08-17T15:30:12;17.30;99.90
44170;DHT22;29836;52.286;9.576;2023-08-17T15:32:37;17.30;99.90